Time;durP1;ratioP1;P1;durP2;ratioP2;P2;SDS_P1;SDS_P2;PMS_P1;PMS_P2;Temp;Humidity;BMP_temperature;BMP_pressure;BME280_temperature;BME280_humidity;BME280_pressure;Samples;Min_cycle;Max_cycle;Signal;HPM_P1;HPM_P2
2023/12/04 00:01:18;;;;;;;0.40;0.40;;;-4.10;93.60;;;;;;4971355;28;20185;-62
2023/12/04 00:03:45;;;;;;;0.73;0.73;;;-4.20;93.70;;;;;;4972262;28;20197;-62
2023/12/04 00:06:11;;;;;;;0.70;0.70;;;-4.10;93.90;;;;;;4971350;28;20420;-62
2023/12/04 00:08:37;;;;;;;0.50;0.50;;;-4.00;94.00;;;;;;4972628;28;20256;-62
2023/12/04 00:11:04;;;;;;;0.50;0.50;;;-4.00;93.70;;;;;;4972267;28;20292;-62
2023/12/04 00:13:30;;;;;;;2.08;1.98;;;-4.00;93.70;;;;;;4971068;28;20287;-62
2023/12/04 00:15:55;;;;;;;0.50;0.50;;;-4.00;94.00;;;;;;4972439;28;20264;-61
2023/12/04 00:18:21;;;;;;;0.57;0.57;;;-4.00;93.70;;;;;;4972509;28;20670;-62
2023/12/04 00:20:47;;;;;;;0.47;0.47;;;-4.00;93.50;;;;;;4972386;28;20173;-62
2023/12/04 00:23:13;;;;;;;0.70;0.70;;;-4.00;93.50;;;;;;4992021;23;20232;-61
2023/12/04 00:25:41;;;;;;;0.60;0.60;;;-3.90;93.60;;;;;;4972134;28;20554;-59
2023/12/04 00:28:07;;;;;;;0.50;0.50;;;-3.90;93.70;;;;;;4965409;28;20204;-59
2023/12/04 00:30:32;;;;;;;0.70;0.70;;;-3.90;93.80;;;;;;4963275;28;20239;-60
2023/12/04 00:32:58;;;;;;;0.50;0.50;;;-3.90;94.00;;;;;;4962865;28;20526;-61
2023/12/04 00:35:24;;;;;;;0.70;0.70;;;-3.80;93.90;;;;;;4948741;28;20173;-61
2023/12/04 00:37:50;;;;;;;0.93;0.93;;;-3.70;93.70;;;;;;4960858;28;20184;-61
2023/12/04 00:40:15;;;;;;;0.43;0.43;;;-3.60;93.30;;;;;;4956864;29;20185;-60
2023/12/04 00:42:41;;;;;;;1.00;0.90;;;-3.70;93.10;;;;;;4967230;28;20205;-60
2023/12/04 00:45:10;;;;;;;0.50;0.50;;;-3.70;93.30;;;;;;4964236;28;20806;-61
2023/12/04 00:47:35;;;;;;;0.50;0.50;;;-3.80;93.40;;;;;;4966262;28;20309;-60
2023/12/04 00:50:02;;;;;;;0.60;0.60;;;-3.90;93.50;;;;;;4947951;28;20229;-60
2023/12/04 00:52:27;;;;;;;0.57;0.57;;;-3.80;93.90;;;;;;4949742;28;20560;-60
2023/12/04 00:54:53;;;;;;;0.50;0.50;;;-3.80;94.20;;;;;;4965513;28;20596;-60
2023/12/04 00:57:19;;;;;;;0.40;0.40;;;-3.80;94.30;;;;;;4965615;28;20175;-60
2023/12/04 00:59:45;;;;;;;0.50;0.50;;;-3.80;94.40;;;;;;4966395;28;20193;-60
2023/12/04 01:02:11;;;;;;;0.30;0.30;;;-3.60;93.90;;;;;;4961170;28;20506;-60
2023/12/04 01:04:41;;;;;;;0.40;0.40;;;-3.50;93.30;;;;;;4947793;28;20606;-60
2023/12/04 01:07:07;;;;;;;0.30;0.30;;;-3.70;93.20;;;;;;4934263;28;20169;-59
2023/12/04 01:09:36;;;;;;;1.15;0.88;;;-3.80;93.60;;;;;;4965681;28;20652;-60
2023/12/04 01:12:02;;;;;;;0.40;0.40;;;-3.60;94.00;;;;;;4947620;28;20197;-60
2023/12/04 01:14:30;;;;;;;0.40;0.40;;;-3.60;94.00;;;;;;4965816;28;20546;-60
2023/12/04 01:16:56;;;;;;;0.40;0.40;;;-3.50;94.10;;;;;;4948687;28;20178;-60
2023/12/04 01:19:21;;;;;;;0.40;0.40;;;-3.40;94.00;;;;;;4964790;28;20185;-60
2023/12/04 01:21:52;;;;;;;0.40;0.40;;;-3.40;94.00;;;;;;4966428;28;20173;-60
2023/12/04 01:24:34;;;;;;;0.50;0.50;;;-3.50;94.10;;;;;;4961529;28;20268;-60
2023/12/04 01:27:00;;;;;;;0.40;0.40;;;-3.40;94.20;;;;;;4963629;28;20185;-60
2023/12/04 01:29:26;;;;;;;0.40;0.40;;;-3.40;94.10;;;;;;4963386;28;20615;-60
2023/12/04 01:31:52;;;;;;;0.40;0.40;;;-3.30;94.00;;;;;;4959417;28;20181;-60
2023/12/04 01:34:18;;;;;;;0.40;0.40;;;-3.20;93.90;;;;;;4963618;28;20449;-59
2023/12/04 01:36:44;;;;;;;0.40;0.40;;;-3.20;93.70;;;;;;4946907;28;20272;-59
2023/12/04 01:39:10;;;;;;;0.40;0.40;;;-3.20;94.00;;;;;;4948106;28;20256;-60
2023/12/04 01:41:35;;;;;;;0.50;0.50;;;-3.30;93.60;;;;;;4965514;28;20328;-60
2023/12/04 01:44:01;;;;;;;0.90;0.90;;;-3.30;93.60;;;;;;4938362;28;20507;-60
2023/12/04 01:46:27;;;;;;;1.80;1.07;;;-3.30;93.50;;;;;;4963666;28;20496;-60
2023/12/04 01:48:54;;;;;;;0.60;0.60;;;-3.30;93.30;;;;;;4945344;28;20695;-60
2023/12/04 01:51:20;;;;;;;0.50;0.50;;;-3.40;93.30;;;;;;4964213;28;20448;-59
2023/12/04 01:53:46;;;;;;;0.63;0.63;;;-3.40;93.50;;;;;;4966262;28;20197;-60
2023/12/04 01:56:14;;;;;;;0.40;0.40;;;-3.30;93.70;;;;;;4962601;28;20184;-60
2023/12/04 01:58:41;;;;;;;1.77;1.67;;;-3.30;93.70;;;;;;4946728;28;20276;-60
2023/12/04 02:01:06;;;;;;;0.70;0.70;;;-3.30;93.70;;;;;;4938878;29;20244;-60
2023/12/04 02:03:33;;;;;;;0.50;0.50;;;-3.20;93.50;;;;;;4954600;29;20205;-60
2023/12/04 02:06:03;;;;;;;0.40;0.40;;;-3.20;93.40;;;;;;4938231;29;20854;-60
2023/12/04 02:08:30;;;;;;;0.50;0.50;;;-3.30;93.40;;;;;;4939032;29;20227;-60
2023/12/04 02:10:55;;;;;;;0.40;0.40;;;-3.40;93.70;;;;;;4954593;29;20251;-60
2023/12/04 02:13:21;;;;;;;0.37;0.37;;;-3.40;94.20;;;;;;4937359;29;20206;-60
2023/12/04 02:15:51;;;;;;;0.40;0.40;;;-3.20;94.40;;;;;;4936911;29;20421;-60
2023/12/04 02:18:18;;;;;;;0.60;0.60;;;-3.00;94.20;;;;;;4954058;28;20410;-60
2023/12/04 02:20:43;;;;;;;0.63;0.63;;;-2.90;93.90;;;;;;4954825;29;20184;-60
2023/12/04 02:23:09;;;;;;;0.60;0.60;;;-2.90;93.40;;;;;;4954295;29;20224;-60
2023/12/04 02:25:35;;;;;;;0.50;0.50;;;-3.10;93.20;;;;;;4954907;29;20184;-60
2023/12/04 02:28:04;;;;;;;0.40;0.40;;;-3.20;93.50;;;;;;4954362;29;20178;-60
2023/12/04 02:30:31;;;;;;;0.50;0.50;;;-3.30;93.80;;;;;;4954638;29;20244;-59
2023/12/04 02:32:59;;;;;;;0.40;0.40;;;-3.40;94.20;;;;;;4954356;29;20738;-60
2023/12/04 02:35:29;;;;;;;1.02;1.02;;;-3.30;94.50;;;;;;4954489;29;20185;-60
2023/12/04 02:37:58;;;;;;;0.63;0.63;;;-3.20;94.50;;;;;;4954265;29;20170;-60
2023/12/04 02:40:24;;;;;;;0.68;0.68;;;-3.10;94.50;;;;;;4954542;29;20205;-60
2023/12/04 02:42:50;;;;;;;0.40;0.40;;;-3.00;94.30;;;;;;4937244;29;20209;-60
2023/12/04 02:45:15;;;;;;;0.40;0.40;;;-3.00;94.20;;;;;;4954034;29;20559;-60
2023/12/04 02:47:41;;;;;;;0.77;0.77;;;-3.00;94.10;;;;;;4954374;29;20174;-60
2023/12/04 02:50:07;;;;;;;0.50;0.50;;;-3.00;94.40;;;;;;4954276;28;20200;-60
2023/12/04 02:52:33;;;;;;;0.40;0.40;;;-3.00;94.60;;;;;;4954333;29;20193;-60
2023/12/04 02:54:58;;;;;;;0.40;0.40;;;-3.00;94.80;;;;;;4953587;28;20173;-60
2023/12/04 02:57:24;;;;;;;0.40;0.40;;;-2.80;94.90;;;;;;4954385;29;20545;-60
2023/12/04 02:59:50;;;;;;;0.30;0.30;;;-2.70;94.50;;;;;;4954533;29;20243;-60
2023/12/04 03:02:16;;;;;;;0.83;0.83;;;-2.70;94.20;;;;;;4954189;29;20174;-60
2023/12/04 03:04:41;;;;;;;0.40;0.40;;;-2.70;94.10;;;;;;4953680;29;20225;-60
2023/12/04 03:07:07;;;;;;;0.40;0.40;;;-2.70;94.00;;;;;;4954405;29;20201;-60
2023/12/04 03:09:32;;;;;;;0.40;0.40;;;-2.70;94.00;;;;;;4953288;29;20185;-60
2023/12/04 03:11:58;;;;;;;0.40;0.40;;;-2.70;94.00;;;;;;4954130;29;20552;-60
2023/12/04 03:14:24;;;;;;;0.40;0.40;;;-2.70;94.00;;;;;;4953887;29;20181;-60
2023/12/04 03:16:50;;;;;;;0.40;0.40;;;-2.60;94.00;;;;;;4953950;29;20639;-59
2023/12/04 03:19:15;;;;;;;0.50;0.50;;;-2.70;94.00;;;;;;4954064;29;20644;-60
2023/12/04 03:21:41;;;;;;;0.70;0.70;;;-2.80;94.20;;;;;;4953976;29;20209;-60
2023/12/04 03:24:06;;;;;;;0.40;0.40;;;-2.70;94.60;;;;;;4936334;29;20581;-60
2023/12/04 03:26:34;;;;;;;0.40;0.40;;;-2.60;95.10;;;;;;4954020;29;20166;-60
2023/12/04 03:29:01;;;;;;;0.65;0.65;;;-2.50;94.60;;;;;;4953879;29;20202;-60
2023/12/04 03:31:28;;;;;;;0.30;0.30;;;-2.50;94.40;;;;;;4953702;29;20208;-60
2023/12/04 03:33:53;;;;;;;0.40;0.40;;;-2.50;94.30;;;;;;4953452;29;20221;-60
2023/12/04 03:36:19;;;;;;;0.50;0.50;;;-2.50;94.30;;;;;;4953792;29;20177;-60
2023/12/04 03:38:45;;;;;;;0.40;0.40;;;-2.50;94.30;;;;;;4953757;29;20552;-60
2023/12/04 03:41:17;;;;;;;0.60;0.60;;;-2.50;94.20;;;;;;4953709;29;20213;-60
2023/12/04 03:43:43;;;;;;;0.40;0.40;;;-2.40;94.10;;;;;;4953290;29;20221;-60
2023/12/04 03:46:09;;;;;;;0.50;0.50;;;-2.40;94.00;;;;;;4954076;29;20604;-59
2023/12/04 03:48:34;;;;;;;0.60;0.60;;;-2.40;93.90;;;;;;4953653;28;20177;-60
2023/12/04 03:51:00;;;;;;;0.30;0.30;;;-2.40;93.90;;;;;;4953541;29;20205;-60
2023/12/04 03:53:26;;;;;;;0.40;0.40;;;-2.40;94.10;;;;;;4953252;29;20684;-60
2023/12/04 03:55:52;;;;;;;1.25;1.25;;;-2.30;94.40;;;;;;4936593;29;20189;-59
2023/12/04 03:58:18;;;;;;;0.40;0.40;;;-2.20;94.50;;;;;;4953452;29;20577;-60
2023/12/04 04:00:43;;;;;;;0.40;0.40;;;-2.10;94.40;;;;;;4953472;29;20581;-60
2023/12/04 04:03:10;;;;;;;0.40;0.40;;;-2.10;94.20;;;;;;4953418;29;20272;-60
2023/12/04 04:05:35;;;;;;;0.38;0.38;;;-2.00;94.00;;;;;;4953537;29;20644;-60
2023/12/04 04:08:01;;;;;;;0.40;0.40;;;-2.00;93.70;;;;;;4939093;29;20280;-60
2023/12/04 04:10:27;;;;;;;0.40;0.40;;;-2.10;93.70;;;;;;4957366;28;20197;-60
2023/12/04 04:12:53;;;;;;;0.40;0.40;;;-2.20;93.80;;;;;;4957241;29;20280;-60
2023/12/04 04:15:18;;;;;;;0.40;0.40;;;-2.30;94.10;;;;;;4957034;29;20332;-60
2023/12/04 04:17:44;;;;;;;0.50;0.50;;;-2.30;94.40;;;;;;4940091;29;20173;-60
2023/12/04 04:20:11;;;;;;;0.50;0.50;;;-2.10;94.80;;;;;;4957355;29;20173;-60
2023/12/04 04:22:38;;;;;;;0.40;0.40;;;-1.90;94.30;;;;;;4957032;29;20213;-60
2023/12/04 04:25:07;;;;;;;0.82;0.82;;;-1.90;94.20;;;;;;4956923;29;20189;-60
2023/12/04 04:27:33;;;;;;;0.52;0.52;;;-1.90;94.20;;;;;;4957074;29;20173;-60
2023/12/04 04:29:59;;;;;;;0.40;0.40;;;-1.90;94.40;;;;;;4956890;28;20205;-60
2023/12/04 04:32:25;;;;;;;0.40;0.40;;;-1.90;94.60;;;;;;4956959;29;20831;-60
2023/12/04 04:34:50;;;;;;;0.60;0.60;;;-1.70;94.90;;;;;;4956853;29;20294;-60
2023/12/04 04:37:16;;;;;;;0.47;0.47;;;-1.60;94.70;;;;;;4956956;29;20212;-60
2023/12/04 04:39:42;;;;;;;0.40;0.40;;;-1.50;94.60;;;;;;4956930;29;20544;-60
2023/12/04 04:42:07;;;;;;;0.30;0.30;;;-1.40;94.40;;;;;;4956752;29;20174;-60
2023/12/04 04:44:33;;;;;;;0.40;0.40;;;-1.40;94.40;;;;;;4956545;28;20173;-60
2023/12/04 04:47:00;;;;;;;0.30;0.30;;;-1.50;94.40;;;;;;4956699;29;20193;-60
2023/12/04 04:49:26;;;;;;;0.50;0.50;;;-1.40;94.60;;;;;;4956724;29;20176;-60
2023/12/04 04:51:51;;;;;;;0.30;0.30;;;-1.50;94.60;;;;;;4956730;29;20181;-60
2023/12/04 04:54:17;;;;;;;0.40;0.40;;;-1.40;94.70;;;;;;4956368;29;20196;-60
2023/12/04 04:56:42;;;;;;;0.43;0.43;;;-1.30;94.40;;;;;;4956603;29;20648;-60
2023/12/04 04:59:08;;;;;;;0.40;0.40;;;-1.30;94.20;;;;;;4956539;29;20180;-60
2023/12/04 05:01:34;;;;;;;0.40;0.40;;;-1.40;94.20;;;;;;4956739;29;20253;-60
2023/12/04 05:04:00;;;;;;;0.60;0.60;;;-1.40;94.50;;;;;;4956358;29;20706;-60
2023/12/04 05:06:25;;;;;;;0.80;0.80;;;-1.30;94.40;;;;;;4956502;28;20190;-60
2023/12/04 05:08:52;;;;;;;4.70;2.10;;;-1.30;94.20;;;;;;4939098;29;20196;-60
2023/12/04 05:11:18;;;;;;;0.45;0.45;;;-1.20;94.20;;;;;;4956234;29;20464;-59
2023/12/04 05:13:47;;;;;;;0.40;0.40;;;-1.20;94.20;;;;;;4956023;29;20284;-60
2023/12/04 05:16:12;;;;;;;0.30;0.30;;;-1.20;94.30;;;;;;4956262;28;20409;-60
2023/12/04 05:18:41;;;;;;;0.40;0.40;;;-1.20;94.30;;;;;;4955222;28;20221;-60
2023/12/04 05:21:10;;;;;;;0.55;0.55;;;-1.30;94.30;;;;;;4957411;28;20210;-59
2023/12/04 05:23:39;;;;;;;0.30;0.30;;;-1.30;94.40;;;;;;4955801;29;20217;-60
2023/12/04 05:26:06;;;;;;;0.50;0.50;;;-1.30;94.70;;;;;;4956062;29;20165;-60
2023/12/04 05:28:32;;;;;;;2.33;2.15;;;-1.30;94.80;;;;;;4955986;29;20182;-60
2023/12/04 05:30:58;;;;;;;0.87;0.60;;;-1.20;95.20;;;;;;4955820;29;20220;-61
2023/12/04 05:33:23;;;;;;;0.40;0.40;;;-1.10;94.60;;;;;;4938433;29;20982;-60
2023/12/04 05:35:51;;;;;;;0.87;0.87;;;-1.00;94.30;;;;;;4955949;29;20410;-60
2023/12/04 05:38:17;;;;;;;0.50;0.50;;;-1.00;94.10;;;;;;4955880;29;20178;-60
2023/12/04 05:40:43;;;;;;;0.40;0.40;;;-1.00;94.10;;;;;;4955436;29;20562;-60
2023/12/04 05:43:08;;;;;;;0.40;0.40;;;-0.90;94.30;;;;;;4955495;29;20194;-61
2023/12/04 05:45:34;;;;;;;0.30;0.30;;;-1.00;94.40;;;;;;4955952;29;20197;-60
2023/12/04 05:48:00;;;;;;;0.63;0.63;;;-1.10;94.40;;;;;;4955682;29;20174;-60
2023/12/04 05:50:26;;;;;;;0.40;0.40;;;-1.00;94.20;;;;;;4955612;29;20625;-60
2023/12/04 05:52:51;;;;;;;0.40;0.40;;;-1.00;94.20;;;;;;4955544;28;20190;-60
2023/12/04 05:55:18;;;;;;;1.80;0.88;;;-1.10;94.30;;;;;;4955734;29;20213;-61
2023/12/04 05:57:44;;;;;;;0.50;0.50;;;-1.30;94.30;;;;;;4955437;28;20175;-60
2023/12/04 06:00:14;;;;;;;0.40;0.40;;;-1.30;94.80;;;;;;4955484;29;20560;-60
2023/12/04 06:02:43;;;;;;;1.13;1.02;;;-1.30;95.10;;;;;;4955427;29;20208;-60
2023/12/04 06:05:09;;;;;;;0.50;0.50;;;-1.10;95.10;;;;;;4955219;28;20659;-60
2023/12/04 06:07:37;;;;;;;0.40;0.40;;;-0.90;95.00;;;;;;4955950;28;20198;-59
2023/12/04 06:10:07;;;;;;;0.50;0.50;;;-0.90;94.70;;;;;;4964432;28;20690;-60
2023/12/04 06:12:33;;;;;;;0.40;0.40;;;-0.90;94.70;;;;;;4953154;28;20206;-60
2023/12/04 06:14:58;;;;;;;1.23;0.75;;;-0.90;94.90;;;;;;4958030;28;20201;-60
2023/12/04 06:17:25;;;;;;;0.40;0.40;;;-0.90;95.10;;;;;;4963935;28;20180;-60
2023/12/04 06:19:50;;;;;;;0.40;0.40;;;-0.80;95.30;;;;;;4965398;28;20201;-60
2023/12/04 06:22:19;;;;;;;0.40;0.40;;;-0.80;95.40;;;;;;4945182;29;20672;-60
2023/12/04 06:24:45;;;;;;;0.40;0.40;;;-0.70;95.50;;;;;;4938317;29;20195;-60
2023/12/04 06:27:16;;;;;;;0.30;0.30;;;-0.80;95.60;;;;;;4934241;29;20187;-60
2023/12/04 06:29:44;;;;;;;0.30;0.30;;;-0.90;95.60;;;;;;4934764;29;20175;-61
2023/12/04 06:32:11;;;;;;;0.50;0.50;;;-0.90;95.70;;;;;;4954891;29;20178;-61
2023/12/04 06:34:37;;;;;;;1.77;0.65;;;-0.80;95.80;;;;;;4954494;29;20639;-61
2023/12/04 06:37:11;;;;;;;1.27;1.17;;;-0.70;95.70;;;;;;4954821;29;20177;-61
2023/12/04 06:39:38;;;;;;;1.15;1.15;;;-0.80;95.60;;;;;;4954781;29;20920;-60
2023/12/04 06:42:06;;;;;;;4.40;3.03;;;-0.70;95.30;;;;;;4954764;29;20188;-61
2023/12/04 06:44:33;;;;;;;0.30;0.30;;;-0.60;95.00;;;;;;4954426;28;20257;-61
2023/12/04 06:47:01;;;;;;;2.35;2.17;;;-0.50;94.80;;;;;;4955260;29;20185;-61
2023/12/04 06:49:30;;;;;;;0.40;0.40;;;-0.50;94.80;;;;;;4954457;29;20166;-61
2023/12/04 06:51:56;;;;;;;2.45;0.82;;;-0.60;94.80;;;;;;4954529;29;20225;-61
2023/12/04 06:54:22;;;;;;;0.87;0.87;;;-0.70;95.10;;;;;;4954096;29;20195;-61
2023/12/04 06:56:47;;;;;;;0.67;0.67;;;-0.60;95.60;;;;;;4954509;29;20182;-61
2023/12/04 06:59:13;;;;;;;1.00;1.00;;;-0.50;95.70;;;;;;4954323;29;20170;-61
2023/12/04 07:01:39;;;;;;;0.67;0.67;;;-0.60;95.80;;;;;;4954216;29;20177;-60
2023/12/04 07:04:09;;;;;;;1.57;1.57;;;-0.70;95.80;;;;;;4936804;29;20215;-61
2023/12/04 07:06:36;;;;;;;0.80;0.50;;;-0.70;96.00;;;;;;4954463;29;20621;-60
2023/12/04 07:09:01;;;;;;;0.40;0.40;;;-0.80;96.30;;;;;;4954352;29;20181;-61
2023/12/04 07:11:27;;;;;;;1.30;1.30;;;-0.70;96.40;;;;;;4932565;29;20256;-61
2023/12/04 07:13:53;;;;;;;3.33;3.20;;;-0.50;96.40;;;;;;4951865;29;20225;-61
2023/12/04 07:16:18;;;;;;;1.57;1.47;;;-0.40;96.30;;;;;;4958815;28;20188;-61
2023/12/04 07:18:44;;;;;;;0.50;0.50;;;-0.40;96.20;;;;;;4965206;28;20180;-61
2023/12/04 07:21:09;;;;;;;0.33;0.33;;;-0.40;96.20;;;;;;4973231;28;20632;-61
2023/12/04 07:23:35;;;;;;;0.80;0.80;;;-0.30;96.50;;;;;;4972776;28;20675;-61
2023/12/04 07:26:01;;;;;;;0.60;0.60;;;-0.20;96.40;;;;;;4955906;28;20182;-61
2023/12/04 07:28:26;;;;;;;0.80;0.80;;;-0.20;96.30;;;;;;4967037;28;20181;-61
2023/12/04 07:30:54;;;;;;;0.40;0.40;;;-0.30;96.40;;;;;;4953852;29;20655;-61
2023/12/04 07:33:19;;;;;;;1.58;0.80;;;-0.20;96.40;;;;;;4936186;29;20210;-61
2023/12/04 07:35:45;;;;;;;2.00;1.90;;;-0.30;96.40;;;;;;4936684;29;20202;-59
2023/12/04 07:38:11;;;;;;;0.60;0.60;;;-0.20;96.60;;;;;;4953748;29;20175;-61
2023/12/04 07:40:36;;;;;;;0.80;0.80;;;0.00;96.60;;;;;;4953633;28;20183;-61
2023/12/04 07:43:02;;;;;;;1.73;1.63;;;0.20;96.40;;;;;;4952837;29;20260;-61
2023/12/04 07:45:28;;;;;;;0.30;0.30;;;0.20;96.20;;;;;;4953568;29;20167;-61
2023/12/04 07:47:53;;;;;;;0.57;0.53;;;0.30;96.20;;;;;;4953662;29;20179;-60
2023/12/04 07:50:19;;;;;;;1.33;1.23;;;0.40;96.20;;;;;;4953587;29;20552;-60
2023/12/04 07:52:45;;;;;;;0.70;0.63;;;0.60;95.90;;;;;;4953648;29;20199;-61
2023/12/04 07:55:10;;;;;;;2.00;1.17;;;0.70;95.70;;;;;;4953352;29;20218;-61
2023/12/04 07:57:37;;;;;;;1.90;1.85;;;0.70;95.60;;;;;;4936182;29;20670;-60
2023/12/04 08:00:03;;;;;;;1.70;1.57;;;0.70;95.60;;;;;;4953406;29;20183;-60
2023/12/04 08:02:29;;;;;;;0.40;0.40;;;0.70;95.80;;;;;;4952917;29;20211;-60
2023/12/04 08:04:54;;;;;;;0.30;0.30;;;0.70;96.10;;;;;;4953481;29;20532;-60
2023/12/04 08:07:20;;;;;;;0.60;0.60;;;0.70;96.60;;;;;;4953354;29;20275;-60
2023/12/04 08:09:47;;;;;;;0.53;0.53;;;0.90;96.40;;;;;;4953297;29;20190;-63
2023/12/04 08:12:12;;;;;;;0.63;0.63;;;1.10;96.30;;;;;;4953927;29;20212;-61
2023/12/04 08:14:38;;;;;;;3.13;1.30;;;1.00;96.10;;;;;;4953028;29;20199;-61
2023/12/04 08:17:05;;;;;;;0.50;0.50;;;1.00;96.20;;;;;;4953351;29;20172;-61
2023/12/04 08:19:32;;;;;;;0.30;0.30;;;1.20;96.10;;;;;;4953246;29;20176;-60
2023/12/04 08:21:58;;;;;;;0.50;0.50;;;1.10;96.10;;;;;;4953319;29;20176;-60
2023/12/04 08:24:24;;;;;;;0.40;0.40;;;1.20;96.10;;;;;;4952208;29;20262;-60
2023/12/04 08:26:50;;;;;;;0.73;0.73;;;1.20;96.00;;;;;;4953184;29;20286;-60
2023/12/04 08:29:17;;;;;;;0.43;0.43;;;1.00;96.30;;;;;;4952980;28;20181;-60
2023/12/04 08:31:43;;;;;;;0.60;0.60;;;0.90;96.70;;;;;;4953224;29;20216;-60
2023/12/04 08:34:08;;;;;;;0.87;0.87;;;1.00;97.20;;;;;;4952804;29;20197;-60
2023/12/04 08:36:34;;;;;;;0.87;0.87;;;1.30;97.00;;;;;;4952983;29;20401;-60
2023/12/04 08:39:00;;;;;;;1.13;1.13;;;1.50;97.00;;;;;;4952840;28;20197;-60
2023/12/04 08:41:28;;;;;;;0.60;0.60;;;1.70;96.30;;;;;;4969626;28;20188;-61
2023/12/04 08:43:54;;;;;;;3.50;2.63;;;2.00;96.10;;;;;;4971859;28;20580;-61
2023/12/04 08:46:20;;;;;;;1.00;1.00;;;2.20;96.00;;;;;;4971941;28;20223;-61
2023/12/04 08:48:46;;;;;;;0.50;0.50;;;2.30;95.70;;;;;;4966490;28;20185;-61
2023/12/04 08:51:18;;;;;;;0.90;0.73;;;2.50;95.70;;;;;;4962132;28;20991;-60
2023/12/04 08:53:44;;;;;;;1.90;1.40;;;2.60;95.60;;;;;;4964787;28;20197;-60
2023/12/04 08:56:11;;;;;;;2.35;0.60;;;2.70;95.00;;;;;;4965888;28;20311;-60
2023/12/04 08:58:37;;;;;;;0.50;0.50;;;2.70;94.70;;;;;;4964598;28;20217;-60
2023/12/04 09:01:04;;;;;;;0.40;0.40;;;2.70;94.80;;;;;;4967402;28;20172;-60
2023/12/04 09:03:33;;;;;;;2.17;0.88;;;2.80;95.10;;;;;;4965289;28;20689;-60
2023/12/04 09:05:59;;;;;;;0.60;0.60;;;2.80;95.30;;;;;;4949767;28;20192;-60
2023/12/04 09:08:27;;;;;;;0.40;0.40;;;3.00;95.10;;;;;;4965016;28;20581;-60
2023/12/04 09:10:52;;;;;;;0.50;0.50;;;3.20;95.20;;;;;;4964813;28;20288;-61
2023/12/04 09:13:19;;;;;;;0.60;0.60;;;3.40;95.20;;;;;;4966381;28;20292;-60
2023/12/04 09:15:45;;;;;;;0.40;0.40;;;3.70;95.00;;;;;;4964997;28;20216;-61
2023/12/04 09:18:11;;;;;;;0.80;0.80;;;4.00;94.90;;;;;;4965578;28;20177;-60
2023/12/04 09:20:36;;;;;;;0.67;0.60;;;4.30;94.90;;;;;;4966597;28;20181;-60
2023/12/04 09:23:02;;;;;;;2.10;1.17;;;4.60;94.40;;;;;;4961704;28;20754;-61
2023/12/04 09:25:28;;;;;;;1.53;1.37;;;4.90;94.10;;;;;;4948384;28;20233;-60
2023/12/04 09:27:53;;;;;;;0.60;0.60;;;5.10;93.50;;;;;;4966051;28;20195;-58
2023/12/04 09:30:19;;;;;;;0.80;0.80;;;5.20;92.40;;;;;;4947157;28;20210;-61
2023/12/04 09:32:44;;;;;;;0.90;0.70;;;5.20;92.20;;;;;;4966025;28;20193;-60
2023/12/04 09:35:10;;;;;;;0.77;0.77;;;5.30;92.30;;;;;;4965392;28;20571;-60
2023/12/04 09:37:37;;;;;;;0.70;0.70;;;5.10;92.30;;;;;;4964259;28;20181;-60
2023/12/04 09:40:05;;;;;;;1.30;1.23;;;4.80;92.10;;;;;;4966018;28;20414;-61
2023/12/04 09:42:31;;;;;;;0.57;0.57;;;4.30;92.50;;;;;;4973484;28;20464;-61
2023/12/04 09:44:58;;;;;;;1.88;1.77;;;4.20;93.00;;;;;;4974995;28;20225;-60
2023/12/04 09:47:24;;;;;;;1.17;1.17;;;3.90;93.60;;;;;;4974981;28;20674;-61
2023/12/04 09:49:52;;;;;;;0.40;0.40;;;3.80;94.20;;;;;;4974992;28;20181;-61
2023/12/04 09:52:19;;;;;;;0.80;0.80;;;3.90;94.70;;;;;;4974826;28;20255;-61
2023/12/04 09:54:45;;;;;;;1.30;0.60;;;3.80;95.20;;;;;;4974537;28;20469;-60
2023/12/04 09:57:12;;;;;;;1.90;1.23;;;3.90;95.00;;;;;;4974837;28;20354;-60
2023/12/04 09:59:38;;;;;;;2.25;2.15;;;4.20;95.00;;;;;;4974902;28;20312;-61
2023/12/04 10:02:05;;;;;;;2.70;2.60;;;4.30;94.30;;;;;;4974760;28;20180;-62
2023/12/04 10:04:33;;;;;;;0.70;0.70;;;4.20;93.90;;;;;;4970776;28;20418;-61
2023/12/04 10:06:59;;;;;;;1.23;1.23;;;4.30;94.00;;;;;;4974573;28;20589;-61
2023/12/04 10:09:25;;;;;;;3.33;2.40;;;4.30;94.20;;;;;;4974139;28;20188;-61
2023/12/04 10:11:51;;;;;;;1.63;1.20;;;4.50;94.30;;;;;;4974464;28;20212;-61
2023/12/04 10:14:21;;;;;;;0.40;0.40;;;4.60;94.10;;;;;;4974199;28;20272;-61
2023/12/04 10:16:49;;;;;;;1.90;0.68;;;4.80;94.10;;;;;;4974472;28;20644;-61
2023/12/04 10:19:23;;;;;;;0.50;0.50;;;4.90;94.30;;;;;;4974488;28;20191;-61
2023/12/04 10:21:50;;;;;;;1.33;1.23;;;4.90;94.40;;;;;;4974250;28;20575;-61
2023/12/04 10:24:35;;;;;;;1.60;1.50;;;4.90;94.50;;;;;;4973876;28;20299;-61
2023/12/04 10:27:05;;;;;;;1.20;1.10;;;4.80;93.60;;;;;;4974328;28;20177;-61
2023/12/04 10:29:45;;;;;;;1.90;1.23;;;4.50;93.60;;;;;;4974357;28;20180;-61
2023/12/04 10:32:11;;;;;;;0.88;0.88;;;4.50;94.20;;;;;;4974045;28;20191;-61
2023/12/04 10:34:42;;;;;;;3.57;1.87;;;4.50;94.50;;;;;;4973898;28;20169;-61
2023/12/04 10:37:09;;;;;;;1.13;1.13;;;4.50;94.20;;;;;;4974196;28;20785;-61
2023/12/04 10:39:51;;;;;;;1.88;1.77;;;4.60;94.50;;;;;;4964001;28;20273;-61
2023/12/04 10:42:29;;;;;;;1.85;1.23;;;4.50;94.70;;;;;;4954682;29;20557;-61
2023/12/04 10:44:58;;;;;;;0.93;0.93;;;4.50;94.70;;;;;;4954139;29;20257;-61
2023/12/04 10:47:24;;;;;;;0.75;0.60;;;4.40;94.90;;;;;;4954624;29;20165;-61
2023/12/04 10:49:51;;;;;;;1.25;0.73;;;4.30;94.70;;;;;;4954505;29;20181;-61
2023/12/04 10:52:19;;;;;;;0.40;0.40;;;4.10;94.70;;;;;;4954406;29;20170;-61
2023/12/04 10:54:46;;;;;;;7.82;2.78;;;3.80;94.80;;;;;;4954084;29;20668;-61
2023/12/04 10:57:15;;;;;;;0.47;0.47;;;3.50;95.20;;;;;;4953168;29;20194;-61
2023/12/04 10:59:42;;;;;;;2.15;0.90;;;3.40;95.50;;;;;;4954883;29;20178;-61
2023/12/04 11:02:12;;;;;;;0.98;0.95;;;3.40;95.90;;;;;;4952375;28;20260;-61
2023/12/04 11:04:40;;;;;;;0.50;0.47;;;3.60;96.30;;;;;;4957758;28;20182;-61
2023/12/04 11:07:08;;;;;;;2.30;2.20;;;3.90;96.30;;;;;;4954195;29;20683;-61
2023/12/04 11:09:35;;;;;;;0.60;0.60;;;4.10;96.20;;;;;;4954127;29;20193;-62
2023/12/04 11:12:06;;;;;;;2.15;1.05;;;4.30;96.00;;;;;;4956344;28;20765;-61
2023/12/04 11:14:39;;;;;;;1.05;0.95;;;4.50;95.60;;;;;;4953952;29;20236;-61
2023/12/04 11:17:11;;;;;;;0.60;0.60;;;4.60;95.20;;;;;;4953181;28;20166;-61
2023/12/04 11:19:47;;;;;;;32.72;6.68;;;4.80;95.00;;;;;;4954015;29;20179;-61
2023/12/04 11:22:15;;;;;;;2.05;1.80;;;4.70;95.00;;;;;;4953629;29;20248;-61
2023/12/04 11:24:41;;;;;;;0.55;0.55;;;4.70;95.00;;;;;;4953741;29;20255;-61
2023/12/04 11:27:07;;;;;;;1.83;1.73;;;4.70;94.90;;;;;;4953959;29;20242;-61
2023/12/04 11:29:35;;;;;;;0.57;0.57;;;4.70;94.90;;;;;;4953889;28;20811;-61
2023/12/04 11:32:00;;;;;;;1.17;1.17;;;4.70;94.90;;;;;;4953713;29;20311;-61
2023/12/04 11:34:26;;;;;;;0.73;0.73;;;4.70;94.90;;;;;;4953598;28;20669;-61
2023/12/04 11:36:52;;;;;;;0.90;0.90;;;4.60;94.90;;;;;;4953665;29;20220;-61
2023/12/04 11:39:19;;;;;;;0.50;0.50;;;4.50;95.10;;;;;;4953778;29;20184;-61
2023/12/04 11:41:45;;;;;;;1.23;0.77;;;4.40;95.30;;;;;;4953783;29;20596;-61
2023/12/04 11:44:14;;;;;;;1.40;0.70;;;4.40;95.40;;;;;;4953515;29;20201;-61
2023/12/04 11:47:02;;;;;;;0.52;0.52;;;4.30;95.50;;;;;;4953641;28;20197;-61
2023/12/04 11:49:29;;;;;;;4.97;1.17;;;4.20;95.80;;;;;;4961225;28;20671;-61
2023/12/04 11:52:04;;;;;;;6.15;3.17;;;4.10;96.10;;;;;;4953491;28;20787;-62
2023/12/04 11:55:00;;;;;;;0.80;0.80;;;3.90;96.60;;;;;;4948508;29;20686;-61
2023/12/04 11:57:28;;;;;;;0.65;0.65;;;3.70;97.20;;;;;;4953526;28;20643;-61
2023/12/04 12:00:08;;;;;;;4.30;4.07;;;3.70;97.50;;;;;;4932734;29;20190;-61
2023/12/04 12:02:33;;;;;;;5.18;1.63;;;3.70;97.50;;;;;;4945271;29;20197;-61
2023/12/04 12:05:00;;;;;;;0.57;0.57;;;3.70;97.30;;;;;;4952015;29;20181;-61
2023/12/04 12:07:27;;;;;;;0.50;0.50;;;3.70;97.10;;;;;;4953340;29;20200;-61
2023/12/04 12:09:53;;;;;;;6.82;2.03;;;3.90;97.00;;;;;;4953258;29;20370;-61
2023/12/04 12:12:18;;;;;;;0.43;0.43;;;4.00;97.10;;;;;;4955493;28;20275;-61
2023/12/04 12:14:44;;;;;;;1.63;1.50;;;4.20;96.70;;;;;;4960654;28;20272;-61
2023/12/04 12:17:10;;;;;;;3.27;1.27;;;4.30;96.40;;;;;;4961062;28;20260;-61
2023/12/04 12:19:37;;;;;;;0.60;0.60;;;4.40;96.30;;;;;;4958547;28;20269;-61
2023/12/04 12:22:03;;;;;;;1.85;1.20;;;4.40;96.20;;;;;;4956568;28;20208;-61
2023/12/04 12:24:29;;;;;;;0.30;0.30;;;4.40;95.90;;;;;;4958469;28;20181;-61
2023/12/04 12:26:56;;;;;;;1.63;0.80;;;4.40;95.90;;;;;;4962806;28;20466;-61
2023/12/04 12:29:21;;;;;;;0.80;0.80;;;4.30;96.00;;;;;;4966462;28;20405;-61
2023/12/04 12:31:48;;;;;;;0.40;0.40;;;4.20;96.20;;;;;;4962564;28;20271;-61
2023/12/04 12:34:14;;;;;;;0.70;0.70;;;4.20;96.30;;;;;;4956482;29;20197;-61
2023/12/04 12:36:42;;;;;;;0.40;0.40;;;4.10;96.30;;;;;;4956148;29;20177;-61
2023/12/04 12:39:08;;;;;;;0.60;0.60;;;4.10;96.50;;;;;;4956943;29;20269;-61
2023/12/04 12:41:34;;;;;;;1.50;1.02;;;4.20;96.80;;;;;;4956844;29;20771;-61
2023/12/04 12:44:01;;;;;;;0.50;0.50;;;4.20;96.90;;;;;;4956543;29;20227;-61
2023/12/04 12:46:27;;;;;;;1.30;0.75;;;4.30;97.00;;;;;;4957020;29;20559;-61
2023/12/04 12:48:52;;;;;;;1.05;1.05;;;4.30;96.90;;;;;;4956757;29;20181;-61